createdAt,value
2023-03-27T00:00:58.341Z,43.30
2023-03-27T00:01:58.254Z,43.30
2023-03-27T00:02:58.258Z,43.30
2023-03-27T00:03:58.266Z,43.20
2023-03-27T00:04:58.233Z,43.30
2023-03-27T00:05:58.188Z,43.20
2023-03-27T00:06:58.173Z,43.20
2023-03-27T00:07:58.168Z,43.20
2023-03-27T00:08:58.252Z,43.20
2023-03-27T00:09:58.156Z,43.20
2023-03-27T00:10:58.397Z,43.20
2023-03-27T00:11:58.136Z,43.20
2023-03-27T00:12:58.111Z,43.20
2023-03-27T00:13:58.072Z,43.20
2023-03-27T00:14:58.138Z,43.20
2023-03-27T00:15:58.129Z,43.20
2023-03-27T00:16:58.102Z,43.20
2023-03-27T00:17:58.070Z,43.20
2023-03-27T00:18:58.041Z,43.20
2023-03-27T00:19:58.294Z,43.20
2023-03-27T00:20:58.133Z,43.20
2023-03-27T00:21:58.029Z,43.20
2023-03-27T00:22:58.058Z,43.20
2023-03-27T00:23:57.975Z,43.20
2023-03-27T00:24:58.026Z,43.20
2023-03-27T00:25:57.990Z,43.20
2023-03-27T00:26:58.052Z,43.20
2023-03-27T00:27:58.914Z,43.20
2023-03-27T00:28:58.022Z,43.20
2023-03-27T00:29:58.354Z,43.20
2023-03-27T00:30:58.255Z,43.20
2023-03-27T00:31:57.889Z,43.20
2023-03-27T00:32:57.942Z,43.20
2023-03-27T00:33:57.892Z,43.20
2023-03-27T00:34:58.547Z,43.20
2023-03-27T00:35:57.966Z,43.10
2023-03-27T00:36:58.544Z,43.10
2023-03-27T00:37:57.844Z,43.10
2023-03-27T00:38:57.840Z,43.10
2023-03-27T00:39:57.836Z,43.20
2023-03-27T00:40:58.564Z,43.10
2023-03-27T00:41:57.800Z,43.12
2023-03-27T00:42:57.806Z,43.10
2023-03-27T00:43:57.810Z,43.12
2023-03-27T00:44:57.790Z,43.12
2023-03-27T00:45:57.897Z,43.12
2023-03-27T00:46:57.770Z,43.12
2023-03-27T00:47:57.787Z,43.12
2023-03-27T00:48:57.720Z,43.12
2023-03-27T00:49:57.760Z,43.12
2023-03-27T00:50:57.875Z,43.12
2023-03-27T00:51:57.878Z,43.12
2023-03-27T00:52:57.686Z,43.12
2023-03-27T00:53:57.695Z,43.12
2023-03-27T00:54:57.661Z,43.12
2023-03-27T00:55:57.721Z,43.12
2023-03-27T00:56:57.747Z,43.12
2023-03-27T00:57:57.678Z,43.12
2023-03-27T00:58:57.643Z,43.02
2023-03-27T00:59:57.680Z,43.02
2023-03-27T01:00:57.881Z,43.02
2023-03-27T01:01:57.684Z,43.02
2023-03-27T01:02:57.730Z,43.02
2023-03-27T01:03:57.605Z,43.02
2023-03-27T01:04:57.580Z,43.02
2023-03-27T01:05:57.553Z,43.02
2023-03-27T01:06:57.535Z,43.02
2023-03-27T01:08:01.063Z,43.02
2023-03-27T01:08:57.522Z,43.02
2023-03-27T01:09:57.505Z,43.02
2023-03-27T01:10:57.798Z,43.02
2023-03-27T01:11:57.534Z,43.02
2023-03-27T01:12:57.787Z,43.02
2023-03-27T01:13:57.488Z,43.02
2023-03-27T01:14:57.444Z,43.02
2023-03-27T01:16:54.272Z,43.02
2023-03-27T01:17:54.237Z,43.02
2023-03-27T01:18:54.248Z,43.02
2023-03-27T01:19:54.245Z,43.02
2023-03-27T01:20:54.272Z,43.02
2023-03-27T01:21:54.185Z,43.02
2023-03-27T01:22:54.163Z,43.02
2023-03-27T01:23:59.734Z,43.02
2023-03-27T01:24:55.164Z,43.02
2023-03-27T01:25:54.146Z,43.02
2023-03-27T01:26:54.149Z,42.92
2023-03-27T01:27:54.122Z,43.02
2023-03-27T01:28:54.103Z,43.02
2023-03-27T01:29:54.366Z,42.92
2023-03-27T01:30:54.360Z,42.92
2023-03-27T01:31:54.158Z,43.02
2023-03-27T01:32:54.116Z,42.92
2023-03-27T01:33:54.081Z,42.92
2023-03-27T01:35:01.798Z,42.92
2023-03-27T01:35:55.179Z,42.92
2023-03-27T01:36:54.028Z,42.92
2023-03-27T01:37:54.022Z,42.92
2023-03-27T01:38:53.998Z,42.92
2023-03-27T01:39:54.012Z,42.92
2023-03-27T01:40:54.046Z,42.92
2023-03-27T01:41:54.005Z,42.92
2023-03-27T01:42:53.960Z,42.92
2023-03-27T01:43:53.962Z,42.92
2023-03-27T01:44:53.933Z,42.92
2023-03-27T01:45:53.980Z,42.92
2023-03-27T01:46:53.954Z,42.92
2023-03-27T01:47:53.945Z,42.92
2023-03-27T01:48:53.885Z,42.92
2023-03-27T01:49:53.921Z,42.92
2023-03-27T01:50:54.701Z,42.82
2023-03-27T01:51:53.862Z,42.82
2023-03-27T01:52:53.860Z,42.82
2023-03-27T01:53:53.864Z,42.82
2023-03-27T01:54:53.836Z,42.82
2023-03-27T01:55:53.828Z,42.82
2023-03-27T01:56:54.027Z,42.82
2023-03-27T01:57:54.353Z,42.82
2023-03-27T01:58:53.786Z,42.82
2023-03-27T01:59:53.804Z,42.82
2023-03-27T02:00:53.820Z,42.82
2023-03-27T02:01:53.796Z,42.82
2023-03-27T02:02:53.792Z,42.82
2023-03-27T02:03:53.745Z,42.82
2023-03-27T02:04:53.748Z,42.82
2023-03-27T02:05:53.719Z,42.82
2023-03-27T02:06:53.726Z,42.82
2023-03-27T02:07:53.758Z,42.82
2023-03-27T02:08:53.676Z,42.72
2023-03-27T02:09:53.679Z,42.72
2023-03-27T02:10:53.753Z,42.72
2023-03-27T02:11:53.722Z,42.72
2023-03-27T02:12:53.640Z,42.72
2023-03-27T02:13:53.667Z,42.72
2023-03-27T02:14:54.284Z,42.74
2023-03-27T02:15:53.688Z,42.74
2023-03-27T02:16:53.616Z,42.74
2023-03-27T02:17:53.842Z,42.74
2023-03-27T02:18:53.574Z,42.74
2023-03-27T02:19:53.583Z,42.74
2023-03-27T02:20:53.857Z,42.74
2023-03-27T02:21:53.563Z,42.74
2023-03-27T02:22:53.540Z,42.74
2023-03-27T02:23:53.576Z,42.74
2023-03-27T02:24:53.517Z,42.74
2023-03-27T02:25:53.524Z,42.74
2023-03-27T02:26:53.579Z,42.74
2023-03-27T02:27:53.500Z,42.64
2023-03-27T02:28:53.486Z,42.74
2023-03-27T02:29:53.537Z,42.74
2023-03-27T02:31:06.423Z,42.74
2023-03-27T02:31:54.482Z,42.64
2023-03-27T02:32:53.470Z,42.64
2023-03-27T02:33:53.432Z,42.64
2023-03-27T02:34:53.436Z,42.64
2023-03-27T02:35:53.501Z,42.64
2023-03-27T02:36:53.397Z,42.64
2023-03-27T02:37:53.406Z,42.64
2023-03-27T02:38:53.379Z,42.64
2023-03-27T02:39:53.373Z,42.64
2023-03-27T02:40:53.354Z,42.64
2023-03-27T02:41:53.415Z,42.64
2023-03-27T02:42:53.334Z,42.64
2023-03-27T02:43:53.341Z,42.64
2023-03-27T02:44:53.331Z,42.64
2023-03-27T02:45:53.391Z,42.64
2023-03-27T02:46:53.486Z,42.64
2023-03-27T02:47:53.350Z,42.64
2023-03-27T02:48:53.269Z,42.64
2023-03-27T02:49:53.261Z,42.64
2023-03-27T02:50:53.256Z,42.64
2023-03-27T02:51:53.267Z,42.64
2023-03-27T02:52:53.260Z,42.64
2023-03-27T02:53:53.248Z,42.64
2023-03-27T02:54:53.215Z,42.54
2023-03-27T02:55:53.215Z,42.54
2023-03-27T02:56:53.336Z,42.54
2023-03-27T02:57:53.326Z,42.64
2023-03-27T02:58:53.194Z,42.54
2023-03-27T02:59:53.214Z,42.54
2023-03-27T03:00:53.209Z,42.54
2023-03-27T03:01:53.179Z,42.54
2023-03-27T03:02:53.171Z,42.54
2023-03-27T03:03:53.146Z,42.54
2023-03-27T03:04:53.097Z,42.54
2023-03-27T03:05:53.148Z,42.54
2023-03-27T03:06:53.092Z,42.54
2023-03-27T03:07:53.089Z,42.54
2023-03-27T03:08:53.073Z,42.54
2023-03-27T03:09:54.760Z,42.54
2023-03-27T03:10:53.053Z,42.54
2023-03-27T03:11:53.062Z,42.54
2023-03-27T03:12:53.037Z,42.54
2023-03-27T03:13:53.043Z,42.54
2023-03-27T03:14:53.004Z,42.54
2023-03-27T03:15:53.020Z,42.54
2023-03-27T03:16:53.036Z,42.54
2023-03-27T03:17:53.036Z,42.54
2023-03-27T03:18:52.992Z,42.54
2023-03-27T03:19:52.957Z,42.54
2023-03-27T03:20:52.968Z,42.54
2023-03-27T03:21:52.992Z,42.54
2023-03-27T03:22:52.920Z,42.44
2023-03-27T03:23:57.505Z,42.44
2023-03-27T03:24:53.912Z,42.44
2023-03-27T03:25:52.926Z,42.44
2023-03-27T03:26:52.987Z,42.44
2023-03-27T03:27:52.872Z,42.44
2023-03-27T03:29:00.627Z,42.44
2023-03-27T03:29:53.869Z,42.44
2023-03-27T03:30:52.857Z,42.44
2023-03-27T03:31:52.859Z,42.44
2023-03-27T03:32:52.852Z,42.44
2023-03-27T03:33:52.875Z,42.44
2023-03-27T03:34:52.812Z,42.44
2023-03-27T03:35:52.828Z,42.44
2023-03-27T03:36:52.795Z,42.44
2023-03-27T03:37:52.811Z,42.44
2023-03-27T03:38:52.748Z,42.44
2023-03-27T03:39:52.811Z,42.44
2023-03-27T03:40:52.739Z,42.44
2023-03-27T03:41:52.847Z,42.44
2023-03-27T03:42:53.686Z,42.44
2023-03-27T03:43:52.734Z,42.33
2023-03-27T03:44:52.709Z,42.33
2023-03-27T03:45:52.760Z,42.44
2023-03-27T03:46:52.688Z,42.33
2023-03-27T03:47:52.755Z,42.44
2023-03-27T03:48:52.673Z,42.33
2023-03-27T03:49:52.662Z,42.33
2023-03-27T03:50:52.636Z,42.33
2023-03-27T03:52:03.438Z,42.33
2023-03-27T03:52:53.622Z,42.46
2023-03-27T03:53:52.608Z,42.46
2023-03-27T03:54:52.590Z,42.44
2023-03-27T03:55:52.620Z,42.46
2023-03-27T03:56:52.979Z,42.44
2023-03-27T03:57:52.577Z,42.46
2023-03-27T03:58:52.569Z,42.35
2023-03-27T03:59:52.542Z,42.35
2023-03-27T04:00:52.550Z,42.46
2023-03-27T04:01:52.594Z,42.46
2023-03-27T04:02:52.601Z,42.46
2023-03-27T04:03:52.568Z,42.55
2023-03-27T04:04:52.485Z,42.46
2023-03-27T04:05:52.490Z,42.46
2023-03-27T04:06:52.478Z,42.46
2023-03-27T04:07:52.480Z,42.55
2023-03-27T04:08:52.525Z,42.55
2023-03-27T04:09:52.447Z,42.55
2023-03-27T04:10:52.410Z,42.55
2023-03-27T04:11:52.433Z,42.55
2023-03-27T04:12:52.402Z,42.55
2023-03-27T04:13:52.424Z,42.55
2023-03-27T04:14:52.370Z,42.55
2023-03-27T04:15:52.380Z,42.55
2023-03-27T04:16:52.358Z,42.55
2023-03-27T04:17:52.467Z,42.55
2023-03-27T04:18:52.428Z,42.55
2023-03-27T04:19:52.851Z,42.55
2023-03-27T04:20:52.312Z,42.55
2023-03-27T04:21:52.323Z,42.55
2023-03-27T04:22:54.223Z,42.55
2023-03-27T04:23:52.310Z,42.55
2023-03-27T04:24:52.301Z,42.55
2023-03-27T04:25:52.395Z,42.55
2023-03-27T04:26:52.270Z,42.55
2023-03-27T04:27:52.319Z,42.55
2023-03-27T04:28:52.260Z,42.55
2023-03-27T04:29:52.220Z,42.55
2023-03-27T04:30:52.229Z,42.46
2023-03-27T04:31:52.275Z,42.55
2023-03-27T04:32:52.193Z,42.46
2023-03-27T04:33:52.552Z,42.55
2023-03-27T04:34:52.337Z,42.46
2023-03-27T04:36:06.031Z,42.46
2023-03-27T04:36:53.149Z,42.46
2023-03-27T04:37:52.146Z,42.35
2023-03-27T04:38:52.135Z,42.35
2023-03-27T04:39:52.136Z,42.35
2023-03-27T04:40:52.128Z,42.35
2023-03-27T04:41:52.099Z,42.35
2023-03-27T04:42:52.108Z,42.35
2023-03-27T04:43:52.101Z,42.35
2023-03-27T04:44:52.069Z,42.35
2023-03-27T04:45:52.082Z,42.35
2023-03-27T04:46:52.345Z,42.35
2023-03-27T04:47:52.051Z,42.35
2023-03-27T04:48:52.063Z,42.35
2023-03-27T04:49:52.034Z,42.35
2023-03-27T04:50:52.001Z,42.35
2023-03-27T04:51:52.021Z,42.35
2023-03-27T04:52:52.044Z,42.35
2023-03-27T04:53:52.000Z,42.35
2023-03-27T04:54:51.961Z,42.35
2023-03-27T04:55:51.968Z,42.35
2023-03-27T04:56:52.078Z,42.35
2023-03-27T04:57:51.958Z,42.25
2023-03-27T04:58:53.762Z,42.25
2023-03-27T04:59:51.924Z,42.24
2023-03-27T05:00:51.928Z,42.24
2023-03-27T05:01:51.901Z,42.24
2023-03-27T05:02:51.928Z,42.24
2023-03-27T05:03:51.976Z,42.24
2023-03-27T05:04:51.942Z,42.24
2023-03-27T05:05:51.879Z,42.24
2023-03-27T05:06:51.893Z,42.24
2023-03-27T05:07:51.848Z,42.13
2023-03-27T05:08:51.848Z,42.13
2023-03-27T05:09:51.779Z,42.13
2023-03-27T05:10:51.810Z,42.13
2023-03-27T05:11:51.804Z,42.13
2023-03-27T05:12:51.762Z,42.13
2023-03-27T05:13:51.766Z,42.13
2023-03-27T05:14:53.422Z,42.11
2023-03-27T05:15:51.708Z,42.01
2023-03-27T05:16:51.740Z,42.01
2023-03-27T05:17:51.692Z,42.01
2023-03-27T05:18:51.666Z,42.01
2023-03-27T05:19:51.669Z,42.01
2023-03-27T05:20:51.640Z,42.01
2023-03-27T05:21:51.636Z,42.01
2023-03-27T05:22:51.620Z,42.01
2023-03-27T05:23:51.626Z,42.01
2023-03-27T05:24:51.583Z,42.01
2023-03-27T05:25:59.844Z,42.01
2023-03-27T05:26:52.637Z,42.01
2023-03-27T05:27:51.590Z,41.91
2023-03-27T05:28:51.917Z,41.91
2023-03-27T05:29:51.558Z,41.91
2023-03-27T05:30:51.648Z,41.91
2023-03-27T05:31:51.541Z,41.89
2023-03-27T05:32:51.531Z,41.79
2023-03-27T05:33:51.514Z,41.69
2023-03-27T05:34:51.914Z,41.69
2023-03-27T05:35:51.523Z,41.59
2023-03-27T05:36:51.476Z,41.59
2023-03-27T05:37:51.454Z,41.49
2023-03-27T05:38:51.463Z,41.39
2023-03-27T05:39:51.477Z,41.39
2023-03-27T05:40:51.503Z,41.29
2023-03-27T05:41:51.409Z,41.29
2023-03-27T05:42:51.425Z,41.29
2023-03-27T05:43:51.525Z,41.29
2023-03-27T05:44:51.384Z,41.19
2023-03-27T05:45:51.486Z,41.19
2023-03-27T05:46:51.373Z,41.19
2023-03-27T05:47:51.385Z,41.19
2023-03-27T05:48:51.356Z,41.09
2023-03-27T05:49:51.342Z,41.09
2023-03-27T05:50:51.882Z,41.09
2023-03-27T05:51:51.311Z,41.09
2023-03-27T05:52:51.326Z,41.09
2023-03-27T05:53:51.285Z,41.09
2023-03-27T05:54:51.295Z,41.09
2023-03-27T05:56:02.334Z,41.09
2023-03-27T05:56:52.442Z,41.09
2023-03-27T05:57:51.246Z,41.09
2023-03-27T05:58:51.533Z,41.09
2023-03-27T05:59:51.246Z,41.09
2023-03-27T06:00:51.227Z,41.09
2023-03-27T06:01:51.199Z,41.09
2023-03-27T06:02:51.269Z,40.99
2023-03-27T06:03:51.326Z,41.09
2023-03-27T06:04:51.193Z,40.99
2023-03-27T06:05:51.165Z,40.99
2023-03-27T06:06:51.175Z,41.09
2023-03-27T06:07:51.150Z,41.09
2023-03-27T06:08:51.366Z,41.09
2023-03-27T06:09:51.125Z,41.09
2023-03-27T06:10:51.136Z,41.09
2023-03-27T06:11:51.104Z,41.09
2023-03-27T06:12:51.109Z,41.09
2023-03-27T06:13:51.076Z,41.09
2023-03-27T06:14:51.125Z,41.09
2023-03-27T06:15:51.082Z,41.09
2023-03-27T06:17:47.848Z,41.09
2023-03-27T06:18:47.774Z,41.09
2023-03-27T06:19:47.759Z,41.09
2023-03-27T06:20:47.780Z,41.09
2023-03-27T06:21:47.734Z,41.09
2023-03-27T06:22:47.736Z,40.97
2023-03-27T06:23:47.735Z,40.99
2023-03-27T06:24:47.699Z,40.97
2023-03-27T06:25:47.727Z,40.97
2023-03-27T06:26:47.976Z,40.97
2023-03-27T06:27:47.707Z,40.97
2023-03-27T06:28:47.661Z,40.97
2023-03-27T06:29:47.690Z,40.97
2023-03-27T06:30:47.701Z,40.97
2023-03-27T06:31:47.638Z,40.97
2023-03-27T06:32:47.730Z,40.97
2023-03-27T06:33:47.622Z,40.87
2023-03-27T06:34:47.622Z,40.87
2023-03-27T06:35:53.276Z,40.87
2023-03-27T06:36:48.618Z,40.87
2023-03-27T06:37:50.271Z,40.87
2023-03-27T06:38:47.578Z,40.87
2023-03-27T06:39:47.585Z,40.77
2023-03-27T06:40:47.542Z,40.77
2023-03-27T06:41:47.554Z,40.77
2023-03-27T06:42:47.541Z,40.67
2023-03-27T06:43:47.536Z,40.67
2023-03-27T06:44:47.515Z,40.67
2023-03-27T06:45:47.502Z,40.67
2023-03-27T06:46:47.533Z,40.67
2023-03-27T06:47:53.701Z,40.65
2023-03-27T06:48:48.523Z,40.65
2023-03-27T06:49:47.463Z,40.65
2023-03-27T06:50:47.424Z,40.65
2023-03-27T06:51:47.446Z,40.75
2023-03-27T06:52:47.446Z,40.75
2023-03-27T06:53:47.940Z,40.75
2023-03-27T06:54:47.414Z,40.75
2023-03-27T06:55:47.407Z,40.75
2023-03-27T06:56:47.465Z,40.85
2023-03-27T06:57:47.399Z,40.75
2023-03-27T06:58:47.358Z,40.75
2023-03-27T06:59:48.422Z,40.85
2023-03-27T07:00:47.358Z,40.85
2023-03-27T07:01:47.376Z,40.75
2023-03-27T07:02:47.376Z,40.65
2023-03-27T07:03:47.312Z,40.63
2023-03-27T07:04:57.703Z,40.63
2023-03-27T07:05:48.450Z,40.63
2023-03-27T07:06:47.298Z,40.63
2023-03-27T07:07:49.281Z,40.63
2023-03-27T07:08:48.988Z,40.63
2023-03-27T07:09:47.248Z,40.63
2023-03-27T07:10:56.376Z,40.63
2023-03-27T07:11:48.266Z,40.63
2023-03-27T07:12:47.205Z,40.73
2023-03-27T07:13:47.214Z,40.63
2023-03-27T07:14:47.209Z,40.63
2023-03-27T07:15:47.183Z,40.63
2023-03-27T07:16:47.186Z,40.63
2023-03-27T07:17:48.902Z,40.73
2023-03-27T07:18:47.167Z,40.83
2023-03-27T07:19:47.153Z,41.03
2023-03-27T07:20:47.127Z,40.93
2023-03-27T07:21:47.157Z,41.23
2023-03-27T07:22:47.103Z,41.53
2023-03-27T07:23:47.103Z,41.11
2023-03-27T07:24:47.104Z,41.41
2023-03-27T07:25:47.101Z,41.31
2023-03-27T07:26:47.091Z,41.21
2023-03-27T07:27:47.370Z,41.21
2023-03-27T07:28:47.026Z,41.71
2023-03-27T07:29:47.068Z,41.91
2023-03-27T07:30:47.026Z,42.21
2023-03-27T07:31:57.678Z,42.32
2023-03-27T07:32:48.104Z,42.32
2023-03-27T07:33:47.093Z,42.21
2023-03-27T07:34:46.977Z,42.32
2023-03-27T07:35:47.673Z,42.41
2023-03-27T07:36:46.954Z,41.91
2023-03-27T07:37:46.971Z,41.91
2023-03-27T07:38:47.377Z,41.91
2023-03-27T07:39:46.958Z,42.02
2023-03-27T07:40:46.937Z,42.02
2023-03-27T07:41:46.920Z,42.02
2023-03-27T07:42:46.901Z,41.91
2023-03-27T07:43:46.896Z,41.79
2023-03-27T07:44:46.880Z,41.89
2023-03-27T07:45:46.988Z,41.89
2023-03-27T07:46:46.864Z,41.99
2023-03-27T07:47:46.892Z,41.99
2023-03-27T07:48:46.844Z,41.99
2023-03-27T07:49:46.855Z,41.89
2023-03-27T07:50:46.862Z,41.79
2023-03-27T07:51:46.859Z,41.89
2023-03-27T07:52:46.818Z,41.89
2023-03-27T07:53:46.843Z,41.89
2023-03-27T07:54:46.795Z,41.79
2023-03-27T07:55:48.491Z,41.69
2023-03-27T07:56:46.947Z,41.79
2023-03-27T07:57:59.951Z,41.79
2023-03-27T07:58:47.754Z,41.99
2023-03-27T07:59:46.898Z,42.10
2023-03-27T08:00:46.725Z,42.30
2023-03-27T08:01:46.730Z,42.30
2023-03-27T08:02:46.756Z,42.30
2023-03-27T08:03:46.797Z,42.30
2023-03-27T08:04:46.817Z,42.30
2023-03-27T08:05:48.452Z,42.30
2023-03-27T08:06:46.658Z,42.30
2023-03-27T08:07:46.716Z,42.30
2023-03-27T08:08:46.650Z,42.30
2023-03-27T08:09:46.713Z,42.30
2023-03-27T08:10:46.668Z,42.30
2023-03-27T08:11:46.661Z,42.49
2023-03-27T08:12:46.593Z,42.49
2023-03-27T08:13:46.640Z,42.49
2023-03-27T08:14:46.557Z,42.40
2023-03-27T08:15:47.011Z,42.30
2023-03-27T08:16:46.603Z,42.30
2023-03-27T08:17:46.684Z,42.19
2023-03-27T08:18:46.536Z,42.10
2023-03-27T08:19:46.575Z,42.19
2023-03-27T08:20:46.553Z,42.30
2023-03-27T08:21:46.552Z,42.18
2023-03-27T08:22:46.500Z,42.30
2023-03-27T08:23:46.537Z,42.49
2023-03-27T08:24:46.491Z,42.40
2023-03-27T08:25:46.885Z,42.18
2023-03-27T08:26:46.480Z,42.19
2023-03-27T08:27:46.442Z,42.19
2023-03-27T08:28:46.480Z,42.30
2023-03-27T08:29:46.433Z,42.30
2023-03-27T08:30:46.471Z,42.18
2023-03-27T08:31:46.434Z,42.18
2023-03-27T08:32:46.462Z,42.18
2023-03-27T08:33:46.397Z,42.07
2023-03-27T08:34:46.396Z,42.07
2023-03-27T08:35:46.962Z,42.07
2023-03-27T08:36:46.387Z,42.07
2023-03-27T08:37:46.374Z,42.07
2023-03-27T08:38:46.327Z,42.18
2023-03-27T08:39:46.340Z,42.19
2023-03-27T08:40:46.338Z,42.18
2023-03-27T08:41:46.306Z,42.18
2023-03-27T08:42:46.289Z,42.07
2023-03-27T08:43:46.306Z,42.07
2023-03-27T08:44:46.430Z,42.07
2023-03-27T08:45:46.250Z,42.07
2023-03-27T08:46:46.301Z,42.07
2023-03-27T08:47:46.265Z,41.97
2023-03-27T08:48:46.202Z,41.97
2023-03-27T08:49:46.283Z,41.97
2023-03-27T08:50:46.205Z,41.97
2023-03-27T08:51:46.233Z,42.18
2023-03-27T08:52:46.171Z,42.10
2023-03-27T08:53:46.285Z,42.07
2023-03-27T08:54:46.162Z,42.07
2023-03-27T08:55:46.156Z,41.97
2023-03-27T08:56:46.134Z,42.07
2023-03-27T08:57:46.157Z,42.07
2023-03-27T08:58:46.108Z,42.18
2023-03-27T08:59:46.193Z,42.18
2023-03-27T09:00:46.105Z,42.07
2023-03-27T09:01:46.190Z,42.07
2023-03-27T09:02:46.145Z,41.27
2023-03-27T09:03:46.197Z,41.38
2023-03-27T09:04:46.058Z,41.38
2023-03-27T09:05:46.050Z,41.38
2023-03-27T09:06:46.696Z,41.07
2023-03-27T09:07:46.052Z,40.87
2023-03-27T09:08:46.051Z,40.47
2023-03-27T09:09:46.417Z,39.67
2023-03-27T09:10:45.984Z,39.39
2023-03-27T09:11:45.991Z,39.59
2023-03-27T09:12:45.971Z,39.99
2023-03-27T09:13:45.999Z,40.07
2023-03-27T09:14:45.957Z,40.29
2023-03-27T09:15:46.054Z,40.39
2023-03-27T09:16:46.753Z,40.37
2023-03-27T09:17:46.007Z,40.47
2023-03-27T09:18:45.946Z,40.49
2023-03-27T09:19:45.931Z,40.47
2023-03-27T09:20:48.416Z,40.47
2023-03-27T09:21:45.933Z,40.47
2023-03-27T09:22:45.861Z,40.39
2023-03-27T09:23:45.852Z,40.47
2023-03-27T09:24:45.860Z,40.47
2023-03-27T09:25:45.900Z,40.47
2023-03-27T09:26:47.604Z,40.47
2023-03-27T09:27:46.838Z,40.47
2023-03-27T09:28:47.934Z,40.47
2023-03-27T09:29:45.853Z,40.47
2023-03-27T09:30:45.980Z,40.47
2023-03-27T09:31:45.794Z,40.47
2023-03-27T09:32:45.806Z,40.57
2023-03-27T09:33:45.761Z,40.57
2023-03-27T09:34:45.722Z,40.57
2023-03-27T09:35:45.824Z,40.57
2023-03-27T09:36:45.775Z,40.57
2023-03-27T09:37:45.717Z,40.67
2023-03-27T09:38:45.688Z,40.67
2023-03-27T09:39:45.689Z,40.67
2023-03-27T09:40:45.685Z,40.67
2023-03-27T09:41:45.670Z,40.67
2023-03-27T09:42:45.683Z,40.77
2023-03-27T09:43:45.675Z,40.67
2023-03-27T09:44:45.664Z,40.77
2023-03-27T09:45:45.668Z,40.77
2023-03-27T09:46:45.681Z,40.77
2023-03-27T09:47:45.686Z,40.77
2023-03-27T09:48:45.624Z,40.77
2023-03-27T09:49:45.606Z,40.77
2023-03-27T09:50:45.585Z,40.77
2023-03-27T09:51:45.665Z,40.77
2023-03-27T09:52:45.545Z,40.87
2023-03-27T09:53:45.576Z,40.87
2023-03-27T09:54:45.546Z,40.79
2023-03-27T09:55:45.603Z,40.79
2023-03-27T09:56:45.589Z,40.89
2023-03-27T09:57:45.549Z,40.89
2023-03-27T09:58:46.453Z,40.99
2023-03-27T09:59:46.495Z,40.99
2023-03-27T10:00:45.513Z,40.99
2023-03-27T10:01:45.508Z,40.99
2023-03-27T10:02:45.554Z,40.99
2023-03-27T10:03:45.477Z,40.89
2023-03-27T10:04:45.448Z,40.89
2023-03-27T10:05:45.503Z,40.89
2023-03-27T10:06:45.458Z,40.99
2023-03-27T10:07:45.411Z,40.99
2023-03-27T10:08:45.499Z,40.99
2023-03-27T10:09:45.419Z,41.09
2023-03-27T10:10:45.369Z,41.09
2023-03-27T10:11:45.440Z,41.09
2023-03-27T10:12:45.349Z,41.09
2023-03-27T10:13:45.351Z,41.09
2023-03-27T10:14:45.324Z,41.09
2023-03-27T10:15:45.345Z,40.99
2023-03-27T10:16:45.424Z,40.99
2023-03-27T10:17:45.334Z,40.99
2023-03-27T10:18:45.290Z,40.99
2023-03-27T10:19:45.287Z,40.89
2023-03-27T10:20:45.274Z,40.99
2023-03-27T10:21:45.321Z,40.79
2023-03-27T10:22:45.235Z,40.79
2023-03-27T10:23:45.344Z,41.09
2023-03-27T10:24:47.003Z,41.09
2023-03-27T10:25:45.224Z,41.09
2023-03-27T10:26:45.331Z,41.19
2023-03-27T10:27:45.214Z,41.19
2023-03-27T10:28:45.221Z,41.29
2023-03-27T10:29:45.167Z,41.29
2023-03-27T10:30:45.217Z,41.29
2023-03-27T10:31:45.166Z,41.39
2023-03-27T10:32:45.298Z,41.39
2023-03-27T10:33:45.153Z,41.60
2023-03-27T10:34:45.184Z,41.69
2023-03-27T10:35:45.139Z,41.49
2023-03-27T10:36:45.140Z,41.49
2023-03-27T10:37:49.781Z,41.60
2023-03-27T10:38:46.866Z,41.69
2023-03-27T10:39:46.031Z,41.79
2023-03-27T10:40:45.108Z,41.69
2023-03-27T10:41:45.076Z,41.69
2023-03-27T10:42:45.140Z,41.79
2023-03-27T10:43:45.055Z,41.79
2023-03-27T10:44:45.080Z,41.89
2023-03-27T10:45:46.023Z,41.79
2023-03-27T10:46:45.079Z,41.79
2023-03-27T10:47:45.010Z,41.89
2023-03-27T10:48:45.008Z,41.99
2023-03-27T10:49:44.962Z,41.99
2023-03-27T10:50:44.970Z,41.99
2023-03-27T10:51:46.800Z,41.99
2023-03-27T10:52:44.999Z,41.99
2023-03-27T10:53:45.019Z,41.99
2023-03-27T10:54:44.960Z,41.79
2023-03-27T10:55:44.967Z,41.79
2023-03-27T10:56:45.026Z,41.69
2023-03-27T10:57:44.956Z,41.60
2023-03-27T10:58:44.907Z,41.49
2023-03-27T10:59:44.904Z,41.49
2023-03-27T11:00:44.865Z,41.29
2023-03-27T11:01:46.657Z,40.99
2023-03-27T11:02:44.927Z,40.89
2023-03-27T11:03:44.835Z,40.89
2023-03-27T11:04:44.935Z,40.89
2023-03-27T11:05:44.878Z,40.79
2023-03-27T11:06:44.856Z,40.79
2023-03-27T11:07:44.761Z,40.79
2023-03-27T11:08:44.825Z,40.79
2023-03-27T11:09:44.757Z,40.89
2023-03-27T11:10:44.774Z,40.89
2023-03-27T11:11:44.771Z,40.89
2023-03-27T11:12:44.720Z,40.89
2023-03-27T11:13:44.711Z,40.99
2023-03-27T11:14:44.743Z,40.99
2023-03-27T11:15:44.688Z,40.99
2023-03-27T11:16:44.746Z,40.99
2023-03-27T11:18:41.446Z,41.09
2023-03-27T11:19:41.441Z,41.09
2023-03-27T11:20:41.427Z,41.09
2023-03-27T11:21:41.420Z,41.09
2023-03-27T11:22:41.400Z,41.09
2023-03-27T11:23:41.431Z,41.09
2023-03-27T11:24:41.374Z,40.99
2023-03-27T11:25:41.386Z,40.99
2023-03-27T11:26:41.350Z,40.99
2023-03-27T11:27:41.444Z,40.99
2023-03-27T11:28:41.340Z,40.99
2023-03-27T11:29:41.351Z,40.99
2023-03-27T11:30:41.304Z,40.99
2023-03-27T11:31:41.407Z,40.99
2023-03-27T11:32:41.340Z,40.99
2023-03-27T11:33:41.286Z,40.99
2023-03-27T11:34:41.266Z,40.99
2023-03-27T11:35:41.291Z,40.99
2023-03-27T11:36:41.256Z,40.99
2023-03-27T11:37:41.277Z,40.99
2023-03-27T11:38:46.486Z,40.99
2023-03-27T11:39:41.229Z,40.99
2023-03-27T11:40:41.219Z,40.99
2023-03-27T11:41:41.221Z,40.99
2023-03-27T11:42:41.194Z,40.99
2023-03-27T11:43:41.206Z,40.99
2023-03-27T11:44:41.180Z,40.99
2023-03-27T11:45:41.181Z,40.89
2023-03-27T11:46:41.194Z,40.89
2023-03-27T11:47:41.194Z,40.91
2023-03-27T11:48:41.120Z,40.91
2023-03-27T11:49:41.183Z,40.91
2023-03-27T11:50:41.180Z,40.89
2023-03-27T11:51:41.122Z,40.89
2023-03-27T11:52:41.118Z,40.91
2023-03-27T11:53:41.090Z,40.91
2023-03-27T11:54:41.101Z,40.81
2023-03-27T11:55:41.096Z,40.79
2023-03-27T11:56:41.200Z,40.81
2023-03-27T11:57:41.056Z,40.81
2023-03-27T11:58:41.701Z,40.81
2023-03-27T11:59:41.045Z,40.81
2023-03-27T12:00:41.076Z,40.81
2023-03-27T12:01:41.052Z,40.81
2023-03-27T12:02:41.077Z,40.81
2023-03-27T12:03:41.063Z,40.81
2023-03-27T12:04:40.996Z,40.71
2023-03-27T12:05:41.008Z,40.71
2023-03-27T12:06:40.944Z,40.71
2023-03-27T12:07:47.356Z,40.71
2023-03-27T12:08:43.044Z,40.71
2023-03-27T12:09:41.534Z,40.71
2023-03-27T12:10:40.914Z,40.71
2023-03-27T12:11:40.906Z,40.71
2023-03-27T12:12:40.881Z,40.71
2023-03-27T12:13:42.728Z,40.71
2023-03-27T12:14:41.335Z,40.71
2023-03-27T12:15:40.891Z,40.71
2023-03-27T12:16:40.904Z,40.71
2023-03-27T12:17:41.559Z,40.71
2023-03-27T12:18:45.289Z,40.71
2023-03-27T12:19:41.811Z,40.71
2023-03-27T12:20:51.782Z,40.71
2023-03-27T12:21:41.819Z,40.71
2023-03-27T12:22:40.788Z,40.71
2023-03-27T12:23:40.781Z,40.71
2023-03-27T12:24:50.037Z,40.71
2023-03-27T12:25:41.806Z,40.71
2023-03-27T12:26:40.765Z,40.71
2023-03-27T12:27:40.722Z,40.71
2023-03-27T12:28:41.294Z,40.71
2023-03-27T12:29:40.718Z,40.71
2023-03-27T12:30:40.681Z,40.71
2023-03-27T12:31:40.758Z,40.71
2023-03-27T12:32:40.783Z,40.71
2023-03-27T12:33:40.669Z,40.71
2023-03-27T12:34:40.639Z,40.71
2023-03-27T12:35:40.673Z,40.71
2023-03-27T12:36:41.076Z,40.71
2023-03-27T12:37:41.594Z,40.71
2023-03-27T12:38:40.615Z,40.71
2023-03-27T12:39:40.622Z,40.71
2023-03-27T12:40:40.582Z,40.71
2023-03-27T12:41:40.598Z,40.71
2023-03-27T12:42:44.171Z,40.71
2023-03-27T12:43:40.606Z,40.81
2023-03-27T12:44:40.528Z,40.91
2023-03-27T12:46:01.098Z,40.81
2023-03-27T12:46:41.590Z,40.81
2023-03-27T12:47:40.606Z,40.81
2023-03-27T12:48:40.519Z,40.81
2023-03-27T12:49:46.840Z,40.81
2023-03-27T12:50:41.484Z,40.81
2023-03-27T12:51:40.503Z,40.71
2023-03-27T12:52:41.126Z,40.81
2023-03-27T12:53:40.466Z,40.71
2023-03-27T12:54:40.457Z,40.71
2023-03-27T12:55:40.487Z,40.71